createdAt,value
2019-05-19T08:22:08.887Z,5.30
2019-05-19T08:24:16.619Z,5.00
2019-05-19T08:26:23.422Z,6.50
2019-05-19T08:28:29.928Z,5.58
2019-05-19T08:30:36.485Z,6.15
2019-05-19T08:32:43.053Z,5.90
2019-05-19T08:34:49.511Z,5.92
2019-05-19T08:36:56.044Z,5.12
2019-05-19T08:39:05.164Z,5.92
2019-05-19T08:41:11.620Z,5.87
2019-05-19T08:43:18.189Z,5.65
2019-05-19T08:45:25.015Z,5.90
2019-05-19T08:47:31.576Z,5.58
2019-05-19T08:49:37.971Z,5.30
2019-05-19T08:51:47.915Z,5.80
2019-05-19T08:53:54.158Z,6.45
2019-05-19T08:56:00.589Z,5.85
2019-05-19T08:58:07.132Z,6.03
2019-05-19T09:00:14.674Z,5.35
2019-05-19T09:02:21.140Z,5.28
2019-05-19T09:04:27.662Z,4.60
2019-05-19T09:06:34.499Z,4.85
2019-05-19T09:08:41.058Z,5.10
2019-05-19T09:10:47.582Z,5.60
2019-05-19T09:12:54.019Z,4.75
2019-05-19T09:15:00.463Z,4.40
2019-05-19T09:17:08.275Z,4.92
2019-05-19T09:19:14.655Z,4.37
2019-05-19T09:21:21.236Z,4.50
2019-05-19T09:23:28.063Z,5.28
2019-05-19T09:25:34.457Z,5.83
2019-05-19T09:27:40.953Z,5.05
2019-05-19T09:29:47.343Z,4.85
2019-05-19T09:31:55.523Z,4.90
2019-05-19T09:34:02.064Z,4.87
2019-05-19T09:36:08.529Z,5.08
2019-05-19T09:38:14.935Z,4.25
2019-05-19T09:40:21.522Z,4.70
2019-05-19T09:42:27.979Z,4.33
2019-05-19T09:44:34.367Z,4.17
2019-05-19T09:46:40.851Z,4.55
2019-05-19T09:48:48.956Z,4.60
2019-05-19T09:50:55.496Z,4.10
2019-05-19T09:53:02.064Z,4.20
2019-05-19T09:55:09.231Z,4.05
2019-05-19T09:57:15.800Z,4.22
2019-05-19T09:59:22.194Z,4.20
2019-05-19T10:01:28.880Z,4.10
2019-05-19T10:03:35.470Z,3.95
2019-05-19T10:05:41.854Z,4.03
2019-05-19T10:07:48.462Z,3.95
2019-05-19T10:10:02.875Z,4.60
2019-05-19T10:12:10.542Z,4.83
2019-05-19T10:14:17.104Z,4.60
2019-05-19T10:16:23.624Z,4.60
2019-05-19T10:18:30.141Z,4.10
2019-05-19T10:20:36.674Z,4.35
2019-05-19T10:22:43.425Z,4.53
2019-05-19T10:25:04.431Z,4.28
2019-05-19T10:26:58.313Z,4.95
2019-05-19T10:29:04.915Z,4.45
2019-05-19T10:31:12.525Z,4.70
2019-05-19T10:33:19.047Z,5.03
2019-05-19T10:35:25.576Z,5.22
2019-05-19T10:37:31.956Z,5.37
2019-05-19T10:39:38.496Z,5.22
2019-05-19T10:41:45.141Z,5.28
2019-05-19T10:43:53.242Z,5.00
2019-05-19T10:45:59.738Z,5.42
2019-05-19T10:48:06.200Z,5.50
2019-05-19T10:50:13.340Z,5.17
2019-05-19T10:52:19.925Z,5.10
2019-05-19T10:54:26.499Z,5.42
2019-05-19T10:56:32.966Z,5.60
2019-05-19T10:58:39.398Z,6.03
2019-05-19T11:00:46.034Z,5.67
2019-05-19T11:02:52.482Z,5.87
2019-05-19T11:04:58.937Z,5.60
2019-05-19T11:07:05.535Z,5.97
2019-05-19T11:09:12.054Z,6.03
2019-05-19T11:11:18.656Z,5.80
2019-05-19T11:13:25.093Z,5.80
2019-05-19T11:15:31.583Z,5.70
2019-05-19T11:17:38.016Z,5.55
2019-05-19T11:19:44.569Z,5.72
2019-05-19T11:21:51.033Z,5.50
2019-05-19T11:23:57.629Z,5.65
2019-05-19T11:26:04.116Z,6.03
2019-05-19T11:28:10.588Z,5.70
2019-05-19T11:30:17.192Z,6.12
2019-05-19T11:32:23.643Z,5.50
2019-05-19T11:34:31.528Z,6.10
2019-05-19T11:36:37.931Z,5.87
2019-05-19T11:38:44.430Z,5.72
2019-05-19T11:40:51.275Z,6.15
2019-05-19T11:42:57.764Z,5.47
2019-05-19T11:45:06.428Z,5.55
2019-05-19T11:47:12.805Z,5.65
2019-05-19T11:49:20.222Z,5.55
2019-05-19T11:51:26.601Z,5.70
2019-05-19T11:53:33.115Z,5.53
2019-05-19T11:55:39.644Z,6.05
2019-05-19T11:57:46.098Z,5.55
2019-05-19T11:59:52.560Z,5.75
2019-05-19T12:01:59.022Z,5.42
2019-05-19T12:04:05.593Z,5.37
2019-05-19T12:06:12.123Z,5.45
2019-05-19T12:08:18.559Z,5.33
2019-05-19T12:10:24.988Z,5.08
2019-05-19T12:12:31.423Z,4.87
2019-05-19T12:14:37.889Z,5.60
2019-05-19T12:16:44.392Z,5.75
2019-05-19T12:18:50.851Z,5.42
2019-05-19T12:20:57.330Z,7.42
2019-05-19T12:23:03.906Z,5.67
2019-05-19T12:25:10.605Z,5.30
2019-05-19T12:27:16.987Z,5.60
2019-05-19T12:29:23.544Z,5.28
2019-05-19T12:31:29.950Z,5.25
2019-05-19T12:33:50.777Z,4.75
2019-05-19T12:35:44.558Z,5.35
2019-05-19T12:37:50.992Z,5.60
2019-05-19T12:39:58.318Z,5.95
2019-05-19T12:42:04.852Z,5.80
2019-05-19T12:44:11.308Z,5.67
2019-05-19T12:46:19.390Z,5.62
2019-05-19T12:48:25.859Z,5.47
2019-05-19T12:50:32.469Z,5.67
2019-05-19T12:52:39.210Z,5.35
2019-05-19T12:54:45.758Z,5.62
2019-05-19T12:56:52.212Z,5.10
2019-05-19T12:58:58.723Z,5.53
2019-05-19T13:01:07.029Z,5.10
2019-05-19T13:03:13.601Z,5.35
2019-05-19T13:05:23.636Z,5.40
2019-05-19T13:07:29.748Z,5.08
2019-05-19T13:09:36.256Z,5.28
2019-05-19T13:11:42.684Z,5.17
2019-05-19T13:13:49.140Z,5.30
2019-05-19T13:15:55.521Z,5.28
2019-05-19T13:18:09.272Z,5.05
2019-05-19T13:20:16.699Z,4.90
2019-05-19T13:22:23.163Z,5.15
2019-05-19T13:24:29.680Z,5.15
2019-05-19T13:26:36.193Z,4.92
2019-05-19T13:28:43.797Z,4.80
2019-05-19T13:30:50.403Z,4.33
2019-05-19T13:32:56.806Z,4.55
2019-05-19T13:35:03.490Z,4.25
2019-05-19T13:37:10.094Z,4.30
2019-05-19T13:39:16.538Z,4.08
2019-05-19T13:41:22.921Z,3.83
2019-05-19T13:43:29.402Z,4.08
2019-05-19T13:45:35.837Z,4.15
2019-05-19T13:47:43.445Z,4.10
2019-05-19T13:49:49.868Z,3.75
2019-05-19T13:51:56.255Z,3.65
2019-05-19T13:54:03.778Z,4.03
2019-05-19T13:56:10.280Z,4.00
2019-05-19T13:58:16.679Z,4.33
2019-05-19T14:00:23.479Z,4.08
2019-05-19T14:02:29.973Z,4.10
2019-05-19T14:04:36.522Z,3.98
2019-05-19T14:06:43.009Z,4.08
2019-05-19T14:08:49.394Z,4.00
2019-05-19T14:10:59.242Z,3.87
2019-05-19T14:13:05.869Z,3.87
2019-05-19T14:15:14.238Z,3.55
2019-05-19T14:17:20.623Z,3.58
2019-05-19T14:19:27.109Z,3.80
2019-05-19T14:21:33.628Z,3.67
2019-05-19T14:23:40.060Z,4.00
2019-05-19T14:25:46.552Z,4.42
2019-05-19T14:27:52.945Z,4.95
2019-05-19T14:29:59.323Z,4.58
2019-05-19T14:32:05.818Z,4.47
2019-05-19T14:34:12.238Z,4.92
2019-05-19T14:36:18.769Z,4.20
2019-05-19T14:38:25.176Z,4.10
2019-05-19T14:40:31.660Z,4.22
2019-05-19T14:42:42.537Z,3.47
2019-05-19T14:44:49.795Z,4.00
2019-05-19T14:46:56.205Z,4.15
2019-05-19T14:49:02.676Z,3.62
2019-05-19T14:51:09.137Z,3.75
2019-05-19T14:53:15.736Z,4.05
2019-05-19T14:55:22.344Z,4.17
2019-05-19T14:57:43.563Z,4.03
2019-05-19T14:59:36.991Z,3.55
2019-05-19T15:01:43.589Z,3.60
2019-05-19T15:03:50.168Z,3.20
2019-05-19T15:05:56.556Z,3.25
2019-05-19T15:08:03.011Z,4.40
2019-05-19T15:10:11.556Z,3.65
2019-05-19T15:12:17.955Z,3.27
2019-05-19T15:14:24.346Z,3.45
2019-05-19T15:16:30.771Z,3.27
2019-05-19T15:18:37.234Z,3.70
2019-05-19T15:20:43.827Z,3.33
2019-05-19T15:22:53.336Z,3.27
2019-05-19T15:24:59.771Z,3.65
2019-05-19T15:27:06.412Z,3.90
2019-05-19T15:29:14.683Z,3.33
2019-05-19T15:31:21.126Z,3.17
2019-05-19T15:33:27.653Z,3.60
2019-05-19T15:35:34.324Z,3.52
2019-05-19T15:37:40.782Z,3.50
2019-05-19T15:39:48.343Z,3.17
2019-05-19T15:41:54.732Z,3.45
2019-05-19T15:44:01.309Z,3.33
2019-05-19T15:46:09.088Z,3.15
2019-05-19T15:48:16.702Z,3.62
2019-05-19T15:50:24.839Z,3.47
2019-05-19T15:52:31.392Z,3.58
2019-05-19T15:54:37.789Z,3.45
2019-05-19T15:56:44.195Z,3.40
2019-05-19T15:58:51.422Z,3.40
2019-05-19T16:01:00.499Z,3.42
2019-05-19T16:03:07.136Z,3.42
2019-05-19T16:05:15.805Z,4.30
2019-05-19T16:07:22.182Z,3.65
2019-05-19T16:09:28.586Z,3.60
2019-05-19T16:11:34.977Z,4.00
2019-05-19T16:13:41.379Z,3.40
2019-05-19T16:15:49.336Z,3.95
2019-05-19T16:17:55.791Z,3.52
2019-05-19T16:20:02.615Z,4.20
2019-05-19T16:22:09.111Z,3.80
2019-05-19T16:24:15.582Z,3.72
2019-05-19T16:26:22.208Z,3.87
2019-05-19T16:28:31.002Z,4.08
2019-05-19T16:30:36.907Z,3.75
2019-05-19T16:32:43.573Z,3.62
2019-05-19T16:34:50.041Z,3.65
2019-05-19T16:36:56.664Z,3.98
2019-05-19T16:39:04.230Z,3.70
2019-05-19T16:41:12.340Z,3.50
2019-05-19T16:43:18.938Z,3.70
2019-05-19T16:45:25.636Z,3.37
2019-05-19T16:47:32.033Z,3.27
2019-05-19T16:49:38.426Z,3.22
2019-05-19T16:51:45.444Z,3.60
2019-05-19T16:53:53.618Z,3.52
2019-05-19T16:56:00.119Z,3.92
2019-05-19T16:58:19.904Z,3.30
2019-05-19T17:00:15.277Z,3.37
2019-05-19T17:02:21.766Z,3.72
2019-05-19T17:04:28.295Z,3.83
2019-05-19T17:06:34.691Z,4.87
2019-05-19T17:08:42.704Z,3.95
2019-05-19T17:10:49.302Z,4.22
2019-05-19T17:12:55.860Z,3.92
2019-05-19T17:15:02.776Z,4.03
2019-05-19T17:17:09.424Z,3.98
2019-05-19T17:19:15.835Z,4.55
2019-05-19T17:21:22.228Z,3.90
2019-05-19T17:23:28.633Z,3.90
2019-05-19T17:25:35.135Z,4.08
2019-05-19T17:27:41.693Z,4.50
2019-05-19T17:29:48.078Z,4.03
2019-05-19T17:32:05.661Z,4.60
2019-05-19T17:34:02.682Z,4.42
2019-05-19T17:36:09.330Z,4.40
2019-05-19T17:38:15.733Z,4.28
2019-05-19T17:40:22.937Z,4.40
2019-05-19T17:42:29.496Z,4.35
2019-05-19T17:44:35.958Z,4.70
2019-05-19T17:46:42.404Z,5.15
2019-05-19T17:48:48.813Z,4.75
2019-05-19T17:50:55.403Z,5.25
2019-05-19T17:53:02.329Z,5.12
2019-05-19T17:55:10.850Z,5.75
2019-05-19T17:57:18.068Z,4.90
2019-05-19T17:59:26.004Z,5.80
2019-05-19T18:01:33.756Z,5.42
2019-05-19T18:03:41.120Z,5.05
2019-05-19T18:05:49.195Z,5.15
2019-05-19T18:07:55.872Z,5.15
2019-05-19T18:10:02.530Z,5.62
2019-05-19T18:12:10.256Z,5.35
2019-05-19T18:14:16.646Z,5.42
2019-05-19T18:16:23.067Z,5.10
2019-05-19T18:18:29.530Z,5.42
2019-05-19T18:20:36.046Z,4.90
2019-05-19T18:22:42.511Z,5.30
2019-05-19T18:24:48.993Z,5.55
2019-05-19T18:26:55.470Z,5.30
2019-05-19T18:29:03.079Z,5.00
2019-05-19T18:31:09.452Z,5.25
2019-05-19T18:33:15.854Z,5.10
2019-05-19T18:35:22.427Z,6.30
2019-05-19T18:37:28.911Z,5.47
2019-05-19T18:39:36.473Z,5.92
2019-05-19T18:41:43.029Z,6.30
2019-05-19T18:43:49.492Z,6.62
2019-05-19T18:45:56.002Z,6.78
2019-05-19T18:48:02.475Z,5.97
2019-05-19T18:50:11.939Z,6.53
2019-05-19T18:52:18.371Z,5.83
2019-05-19T18:54:24.755Z,5.97
2019-05-19T18:56:31.283Z,6.33
2019-05-19T18:58:37.734Z,6.15
2019-05-19T19:00:44.324Z,5.28
2019-05-19T19:02:50.899Z,6.62
2019-05-19T19:04:57.442Z,6.00
2019-05-19T19:07:03.871Z,6.65
2019-05-19T19:09:10.872Z,6.15
2019-05-19T19:11:17.264Z,6.97
2019-05-19T19:13:23.717Z,5.67
2019-05-19T19:15:30.343Z,5.90
2019-05-19T19:17:36.836Z,5.35
2019-05-19T19:19:43.296Z,5.37
2019-05-19T19:21:49.836Z,5.17
2019-05-19T19:23:56.216Z,5.90
2019-05-19T19:26:02.803Z,5.00
2019-05-19T19:28:09.276Z,5.58
2019-05-19T19:30:17.229Z,5.35
2019-05-19T19:32:25.664Z,5.42
2019-05-19T19:34:32.137Z,6.05
2019-05-19T19:36:38.543Z,6.15
2019-05-19T19:38:45.037Z,5.53
2019-05-19T19:40:54.064Z,6.22
2019-05-19T19:43:01.817Z,5.72
2019-05-19T19:45:09.740Z,5.60
2019-05-19T19:47:16.273Z,5.15
2019-05-19T19:49:22.677Z,4.90
2019-05-19T19:51:29.083Z,5.25
2019-05-19T19:53:35.633Z,5.10
2019-05-19T19:55:42.149Z,5.15
2019-05-19T19:57:48.763Z,4.40
2019-05-19T19:59:55.238Z,4.58
2019-05-19T20:02:01.630Z,4.35
2019-05-19T20:04:08.134Z,4.50
2019-05-19T20:06:14.838Z,4.83
2019-05-19T20:08:22.275Z,4.55
2019-05-19T20:10:28.793Z,4.05
2019-05-19T20:12:35.250Z,4.33
2019-05-19T20:14:42.792Z,4.97
2019-05-19T20:16:49.199Z,5.22
2019-05-19T20:18:57.463Z,5.97
2019-05-19T20:21:04.157Z,5.47
2019-05-19T20:23:14.819Z,4.62
2019-05-19T20:25:22.990Z,5.17
2019-05-19T20:27:29.643Z,4.83
2019-05-19T20:29:36.323Z,5.35
2019-05-19T20:31:43.023Z,5.60
2019-05-19T20:33:49.500Z,5.72
2019-05-19T20:35:56.278Z,5.47
2019-05-19T20:38:03.161Z,6.05
2019-05-19T20:40:18.051Z,6.00
2019-05-19T20:42:27.413Z,5.78
2019-05-19T20:44:34.085Z,5.25
2019-05-19T20:46:43.595Z,5.75
2019-05-19T20:48:51.806Z,5.33
2019-05-19T20:51:00.688Z,4.65
2019-05-19T20:55:46.050Z,5.20
2019-05-19T20:57:49.044Z,4.85
2019-05-19T20:59:55.655Z,5.20
2019-05-19T21:02:02.224Z,5.75
2019-05-19T21:04:08.686Z,5.70
2019-05-19T21:06:15.368Z,5.62
2019-05-19T21:08:21.859Z,5.87
2019-05-19T21:10:28.542Z,4.90
2019-05-19T21:12:36.581Z,4.85
2019-05-19T21:14:43.097Z,5.72
2019-05-19T21:16:49.641Z,5.92
2019-05-19T21:18:56.184Z,5.35
2019-05-19T21:21:02.926Z,5.92
2019-05-19T21:23:10.251Z,5.25
2019-05-19T21:25:16.761Z,5.78
2019-05-19T21:27:24.809Z,6.05
2019-05-19T21:29:31.174Z,4.87
2019-05-19T21:31:38.843Z,5.53
2019-05-19T21:33:45.252Z,5.53
2019-05-19T21:35:51.749Z,5.85
2019-05-19T21:37:58.226Z,5.22
2019-05-19T21:40:08.608Z,4.95
2019-05-19T21:42:15.114Z,6.37
2019-05-19T21:44:21.504Z,5.50
2019-05-19T21:46:27.906Z,5.33
2019-05-19T21:48:37.057Z,5.20
2019-05-19T21:50:43.448Z,5.47
2019-05-19T21:52:49.839Z,4.47
2019-05-19T21:54:56.275Z,5.70
2019-05-19T21:57:02.794Z,5.55
2019-05-19T21:59:09.191Z,5.12
2019-05-19T22:01:23.345Z,5.65
2019-05-19T22:03:26.267Z,5.83
2019-05-19T22:05:32.762Z,6.47
2019-05-19T22:07:57.149Z,5.25
2019-05-19T22:10:04.382Z,5.22
2019-05-19T22:12:10.998Z,5.65
2019-05-19T22:14:17.364Z,6.28
2019-05-19T22:16:23.790Z,5.40
2019-05-19T22:18:30.254Z,5.20
2019-05-19T22:20:36.846Z,6.00
2019-05-19T22:22:43.289Z,5.55
2019-05-19T22:24:49.719Z,5.70
2019-05-19T22:26:56.110Z,5.28
2019-05-19T22:29:02.627Z,5.47
2019-05-19T22:31:09.088Z,6.35
2019-05-19T22:33:15.605Z,4.85
2019-05-19T22:35:22.113Z,5.60
2019-05-19T22:37:28.558Z,4.90
2019-05-19T22:39:35.025Z,5.37
2019-05-19T22:41:41.450Z,4.72
2019-05-19T22:43:47.901Z,5.55
2019-05-19T22:45:54.299Z,5.33
2019-05-19T22:48:00.847Z,6.40
2019-05-19T22:50:09.455Z,5.67
2019-05-19T22:52:16.898Z,6.05
2019-05-19T22:54:23.315Z,5.90
2019-05-19T22:56:29.684Z,5.58
2019-05-19T22:58:36.186Z,6.40
2019-05-19T23:00:43.808Z,5.58
2019-05-19T23:02:51.189Z,5.40
2019-05-19T23:08:44.754Z,6.42
2019-05-19T23:10:52.222Z,5.83
2019-05-19T23:12:58.675Z,5.25
2019-05-19T23:15:07.998Z,5.85
2019-05-19T23:17:14.651Z,5.90
2019-05-19T23:19:21.045Z,6.15
2019-05-19T23:21:27.458Z,5.45
2019-05-19T23:23:33.907Z,6.05
2019-05-19T23:25:40.356Z,5.87
2019-05-19T23:27:46.935Z,5.60
2019-05-19T23:29:54.497Z,6.20
2019-05-19T23:32:07.083Z,6.03
2019-05-19T23:34:10.563Z,6.50
2019-05-19T23:36:17.096Z,5.90
2019-05-19T23:38:25.001Z,5.97
2019-05-19T23:40:31.481Z,6.03
2019-05-19T23:42:37.950Z,7.05
2019-05-19T23:44:44.452Z,6.42
2019-05-19T23:46:50.930Z,6.20
2019-05-19T23:48:57.326Z,5.97
2019-05-19T23:51:03.825Z,7.22
2019-05-19T23:53:10.220Z,6.03
2019-05-19T23:55:16.751Z,6.10
2019-05-19T23:57:23.241Z,5.92
2019-05-19T23:59:29.987Z,5.80
